aviador You're here:

KAZO Decoded Metar

KALAMAZOO in MI, USA
Report Time2017-07-22 23:53:00
UTC Time2017-07-23 00:50:33
Flight Rules mvfr MVFR
Wind290° at 06 kt
W.Decomp.*RWY 27: 5.5 kt HW 2.3 kt RCW
RWY 35: 3.3 kt HW 5 kt LCW
RWY 23: 2.7 kt HW 5.3 kt RCW
W.Rank290° ranks 10
Current wind is below 290° avg. (9.1)
Visibility9999 m
Phenomena:N/A
Clouds:Broken 021 Hf
Expected CloudBase > 2,000 ft AGL from Temp-Dew spread
Ceiling2,100 ft
Temp24°C (ISA +11)
Dew Point19°C (74% RH)
QNH1009 hPa
Density Alt2,569 ft
Elevation892 ft
Report Wrong Elevation
Raw Report
KAZO 222353Z 29006KT 10SM BKN021 24/19 A2981 RMK AO2 SLP089
T02440194 10283 20244 50003=

Extra information for KAZO:More info

Metar Taf Metar & Taf Last 4 Metars F.Rules Stats Wind Profile Meteogram Temp Stats Airport Information Weather charts Add Link Nearby VenuesMetar ALERT Operation Metar Decoded Social comments

AIRNAV info for KAZO